»·PEaware :: N333ZS KBFL-KSBA

N333ZS :: KBFL-KSBA

FLIGHT INFORMATION

Flight Status: Arrived
Operator: Privately registered:
United States
More flights under this callsign
Pilot: Judd H. (29974)
Aircraft: CESSNA 182 SKYLANE
(C182)
More flights by this aircraft type
Origin: KBFL Meadows
United States
Destination: KSBA Santa Barbara Mun
United States
More flights between these airports :: More routes between these airports
Route: TAFTO KSBA
File this flight plan on PilotEdge
Remarks:
Altitude:
(Current/Filed)
8,500ft
Speed:
(Current/Filed)
125kts
Departed: 30-Jul-20 07:32 PM
Arrived: 30-Jul-20 08:14 PM
Distance/Time
Traveled:
72nm/0:42
Distance/Time
To Go:
Arrived

Flight Plot

Page will automatically refresh every two minutes.


Map Options




Map Legend


Flown Route
Filed Route
Departure Airport
Arrival Airport
Navaid (VOR, NDB)
Fix

Horizontal Profiles

Position Reports

Time Latitude Longitude Heading Altitude Ground
Speed
30-Jul-20 19:17 35.429778 -119.046867 135 510ft 0kts
30-Jul-20 19:18 35.429778 -119.046867 135 510ft 0kts
30-Jul-20 19:19 35.429778 -119.046867 135 510ft 0kts
30-Jul-20 19:20 35.429778 -119.046867 135 510ft 0kts
30-Jul-20 19:21 35.429778 -119.046867 135 510ft 0kts
30-Jul-20 19:21 35.429777 -119.046866 135 510ft 0kts
30-Jul-20 19:23 35.429776 -119.046865 135 510ft 0kts
30-Jul-20 19:24 35.429775 -119.046864 135 510ft 0kts
30-Jul-20 19:25 35.429774 -119.046863 135 510ft 0kts
30-Jul-20 19:25 35.429774 -119.046862 135 510ft 0kts
30-Jul-20 19:26 35.429773 -119.046861 135 510ft 0kts
30-Jul-20 19:28 35.429772 -119.046860 135 510ft 0kts
30-Jul-20 19:29 35.428739 -119.046975 219 510ft 11kts
30-Jul-20 19:29 35.426262 -119.044793 134 510ft 17kts
30-Jul-20 19:31 35.425475 -119.044708 250 510ft 0kts
30-Jul-20 19:31 35.427167 -119.048128 316 510ft 49kts
30-Jul-20 19:32 35.444382 -119.068870 316 1425ft 93kts
30-Jul-20 19:33 35.442279 -119.095729 202 2249ft 123kts
30-Jul-20 19:34 35.410220 -119.110669 205 2970ft 134kts
30-Jul-20 19:35 35.373177 -119.127361 201 2973ft 143kts
30-Jul-20 19:36 35.337802 -119.149998 216 2977ft 143kts
30-Jul-20 19:37 35.304541 -119.177205 215 2977ft 144kts
30-Jul-20 19:38 35.274840 -119.205434 224 3383ft 126kts
30-Jul-20 19:39 35.248863 -119.233574 224 3983ft 124kts
30-Jul-20 19:40 35.222953 -119.262512 226 4451ft 133kts
30-Jul-20 19:41 35.194368 -119.295187 222 4622ft 137kts
30-Jul-20 19:42 35.165476 -119.322272 220 5283ft 126kts
30-Jul-20 19:43 35.136095 -119.344348 212 5988ft 122kts
30-Jul-20 19:44 35.107550 -119.363121 210 6881ft 114kts
30-Jul-20 19:45 35.078063 -119.381148 210 7600ft 119kts
30-Jul-20 19:46 35.048266 -119.399069 212 8306ft 118kts
30-Jul-20 19:47 35.016802 -119.419658 212 8538ft 136kts
30-Jul-20 19:48 34.982829 -119.444078 215 8555ft 143kts
30-Jul-20 19:49 34.948506 -119.469510 215 8562ft 143kts
30-Jul-20 19:50 34.914866 -119.494015 215 8583ft 139kts
30-Jul-20 19:51 34.881520 -119.517937 214 8592ft 137kts
30-Jul-20 19:52 34.848487 -119.540960 214 8591ft 136kts
30-Jul-20 19:53 34.816802 -119.562828 214 8589ft 125kts
30-Jul-20 19:54 34.786576 -119.582622 213 8591ft 122kts
30-Jul-20 19:55 34.756373 -119.602046 212 8591ft 122kts
30-Jul-20 19:56 34.726093 -119.620847 212 8591ft 122kts
30-Jul-20 19:57 34.695622 -119.639747 212 8591ft 122kts
30-Jul-20 19:58 34.665932 -119.659869 215 8591ft 121kts
30-Jul-20 19:59 34.636835 -119.680573 215 8591ft 121kts
30-Jul-20 20:00 34.607570 -119.701385 215 8589ft 121kts
30-Jul-20 20:01 34.578412 -119.722107 215 8590ft 121kts
30-Jul-20 20:02 34.549305 -119.742761 215 8609ft 120kts
30-Jul-20 20:03 34.520343 -119.763305 215 8609ft 120kts
30-Jul-20 20:04 34.491276 -119.783817 214 8608ft 121kts
30-Jul-20 20:05 34.460788 -119.803659 179 8469ft 139kts
30-Jul-20 20:06 34.450800 -119.759306 87 6686ft 136kts
30-Jul-20 20:07 34.453750 -119.714702 83 3922ft 120kts
30-Jul-20 20:08 34.445051 -119.676900 171 3926ft 127kts
30-Jul-20 20:09 34.428711 -119.706395 276 3726ft 132kts
30-Jul-20 20:10 34.429220 -119.745110 273 2519ft 109kts
30-Jul-20 20:11 34.428982 -119.782113 266 1242ft 110kts
30-Jul-20 20:12 34.428313 -119.815733 265 412ft 90kts
30-Jul-20 20:13 34.427810 -119.841420 294 13ft 29kts
30-Jul-20 20:14 34.428852 -119.844051 269 13ft 14kts
30-Jul-20 20:15 34.429573 -119.845170 73 13ft 0kts
30-Jul-20 20:16 34.429573 -119.845170 73 13ft 0kts
30-Jul-20 20:17 34.429573 -119.845170 73 13ft 0kts

Navigation Log

Ident Type
Flight plan parsing failed, navigation log unavailable